createdAt,value
2023-02-26T09:01:10.387Z,3.20
2023-02-26T09:02:09.999Z,2.40
2023-02-26T09:03:09.948Z,2.40
2023-02-26T09:04:09.857Z,2.40
2023-02-26T09:05:09.797Z,4.70
2023-02-26T09:06:09.891Z,2.80
2023-02-26T09:07:09.853Z,1.80
2023-02-26T09:08:09.797Z,1.50
2023-02-26T09:09:09.856Z,2.90
2023-02-26T09:10:09.790Z,1.00
2023-02-26T09:11:09.712Z,1.80
2023-02-26T09:12:09.708Z,2.40
2023-02-26T09:13:09.740Z,2.50
2023-02-26T09:14:09.688Z,2.50
2023-02-26T09:15:09.668Z,2.70
2023-02-26T09:16:09.740Z,4.00
2023-02-26T09:17:09.635Z,2.10
2023-02-26T09:18:09.717Z,4.80
2023-02-26T09:19:09.610Z,3.80
2023-02-26T09:20:09.636Z,1.60
2023-02-26T09:21:09.617Z,1.80
2023-02-26T09:22:09.569Z,1.90
2023-02-26T09:23:09.652Z,1.50
2023-02-26T09:24:09.574Z,5.10
2023-02-26T09:25:09.735Z,4.00
2023-02-26T09:26:09.690Z,4.50
2023-02-26T09:27:09.503Z,2.40
2023-02-26T09:28:09.495Z,2.50
2023-02-26T09:29:09.503Z,3.90
2023-02-26T09:30:09.492Z,4.30
2023-02-26T09:31:09.759Z,3.20
2023-02-26T09:32:09.536Z,4.70
2023-02-26T09:33:09.434Z,2.60
2023-02-26T09:34:11.374Z,4.40
2023-02-26T09:35:09.476Z,3.60
2023-02-26T09:36:09.383Z,2.40
2023-02-26T09:37:09.375Z,2.00
2023-02-26T09:38:09.356Z,1.60
2023-02-26T09:39:09.360Z,2.70
2023-02-26T09:40:09.344Z,2.50
2023-02-26T09:41:09.320Z,4.60
2023-02-26T09:42:09.311Z,2.00
2023-02-26T09:43:09.312Z,3.00
2023-02-26T09:44:09.276Z,1.30
2023-02-26T09:45:09.273Z,2.80
2023-02-26T09:46:09.362Z,2.00
2023-02-26T09:47:09.249Z,1.70
2023-02-26T09:48:09.262Z,2.60
2023-02-26T09:49:09.209Z,1.90
2023-02-26T09:50:09.199Z,2.80
2023-02-26T09:51:09.209Z,2.30
2023-02-26T09:52:09.229Z,2.60
2023-02-26T09:53:09.156Z,2.00
2023-02-26T09:54:09.146Z,3.80
2023-02-26T09:55:09.138Z,4.60
2023-02-26T09:56:09.179Z,3.70
2023-02-26T09:57:09.121Z,1.70
2023-02-26T09:58:09.134Z,2.50
2023-02-26T09:59:09.081Z,3.40
2023-02-26T10:00:09.196Z,3.20
2023-02-26T10:01:09.331Z,3.90
2023-02-26T10:02:09.150Z,3.00
2023-02-26T10:03:09.100Z,1.10
2023-02-26T10:04:09.080Z,2.70
2023-02-26T10:05:09.020Z,1.70
2023-02-26T10:06:09.004Z,2.00
2023-02-26T10:07:08.991Z,2.20
2023-02-26T10:08:08.968Z,2.50
2023-02-26T10:09:08.950Z,3.70
2023-02-26T10:10:08.963Z,2.10
2023-02-26T10:11:08.977Z,5.00
2023-02-26T10:12:08.929Z,3.70
2023-02-26T10:13:09.242Z,2.80
2023-02-26T10:14:08.957Z,1.50
2023-02-26T10:15:08.920Z,4.00
2023-02-26T10:16:10.261Z,4.50
2023-02-26T10:17:08.868Z,1.60
2023-02-26T10:18:08.849Z,2.40
2023-02-26T10:19:08.888Z,3.40
2023-02-26T10:20:08.885Z,1.00
2023-02-26T10:21:08.793Z,2.10
2023-02-26T10:22:08.833Z,2.70
2023-02-26T10:23:08.767Z,2.20
2023-02-26T10:24:08.756Z,4.70
2023-02-26T10:25:08.780Z,1.30
2023-02-26T10:26:08.754Z,1.60
2023-02-26T10:27:08.731Z,1.20
2023-02-26T10:28:08.744Z,1.60
2023-02-26T10:29:08.699Z,4.20
2023-02-26T10:30:08.768Z,3.30
2023-02-26T10:31:08.742Z,4.20
2023-02-26T10:32:08.797Z,3.20
2023-02-26T10:33:08.654Z,2.60
2023-02-26T10:34:08.627Z,1.50
2023-02-26T10:35:08.597Z,3.20
2023-02-26T10:36:08.642Z,1.70
2023-02-26T10:37:08.645Z,1.70
2023-02-26T10:38:08.591Z,2.50
2023-02-26T10:39:08.575Z,2.20
2023-02-26T10:40:08.585Z,3.40
2023-02-26T10:41:08.607Z,2.40
2023-02-26T10:42:08.514Z,1.30
2023-02-26T10:43:08.546Z,2.10
2023-02-26T10:44:08.498Z,4.50
2023-02-26T10:45:08.472Z,2.10
2023-02-26T10:46:08.570Z,1.60
2023-02-26T10:47:08.456Z,1.20
2023-02-26T10:48:08.561Z,1.40
2023-02-26T10:49:08.456Z,0.90
2023-02-26T10:50:08.434Z,2.30
2023-02-26T10:51:08.418Z,1.50
2023-02-26T10:52:08.380Z,2.40
2023-02-26T10:53:08.409Z,1.10
2023-02-26T10:54:08.359Z,2.10
2023-02-26T10:55:08.509Z,1.10
2023-02-26T10:56:08.338Z,1.50
2023-02-26T10:57:08.319Z,1.10
2023-02-26T10:58:08.308Z,0.90
2023-02-26T10:59:08.322Z,2.60
2023-02-26T11:00:08.274Z,2.60
2023-02-26T11:01:08.356Z,3.80
2023-02-26T11:02:08.305Z,2.00
2023-02-26T11:03:08.297Z,4.80
2023-02-26T11:04:08.290Z,2.70
2023-02-26T11:05:08.338Z,3.40
2023-02-26T11:06:08.209Z,3.00
2023-02-26T11:07:08.205Z,1.70
2023-02-26T11:08:08.215Z,2.20
2023-02-26T11:09:08.230Z,1.40
2023-02-26T11:10:08.147Z,1.60
2023-02-26T11:11:08.172Z,3.10
2023-02-26T11:12:08.134Z,1.60
2023-02-26T11:13:08.197Z,3.00
2023-02-26T11:14:08.230Z,1.60
2023-02-26T11:15:08.103Z,1.60
2023-02-26T11:16:08.250Z,3.10
2023-02-26T11:17:08.059Z,3.10
2023-02-26T11:18:08.068Z,2.30
2023-02-26T11:19:08.088Z,1.10
2023-02-26T11:20:08.107Z,2.50
2023-02-26T11:21:08.058Z,1.80
2023-02-26T11:22:07.984Z,3.10
2023-02-26T11:23:08.033Z,1.70
2023-02-26T11:24:08.005Z,1.60
2023-02-26T11:25:07.979Z,1.40
2023-02-26T11:26:08.011Z,2.50
2023-02-26T11:27:07.945Z,0.90
2023-02-26T11:28:07.975Z,2.30
2023-02-26T11:29:07.938Z,3.50
2023-02-26T11:30:07.884Z,2.10
2023-02-26T11:31:08.231Z,1.70
2023-02-26T11:32:08.048Z,2.90
2023-02-26T11:33:07.852Z,2.80
2023-02-26T11:34:07.914Z,1.30
2023-02-26T11:35:07.844Z,3.50
2023-02-26T11:36:07.861Z,2.00
2023-02-26T11:37:07.821Z,3.10
2023-02-26T11:38:07.865Z,2.00
2023-02-26T11:39:07.806Z,1.90
2023-02-26T11:40:07.812Z,1.40
2023-02-26T11:41:07.766Z,2.10
2023-02-26T11:42:07.824Z,1.90
2023-02-26T11:43:07.793Z,1.30
2023-02-26T11:44:07.742Z,1.00
2023-02-26T11:45:07.714Z,2.50
2023-02-26T11:46:07.760Z,3.00
2023-02-26T11:47:07.918Z,1.60
2023-02-26T11:48:07.721Z,1.70
2023-02-26T11:49:07.829Z,1.20
2023-02-26T11:50:07.654Z,5.50
2023-02-26T11:51:07.650Z,4.20
2023-02-26T11:52:07.589Z,1.50
2023-02-26T11:53:07.616Z,1.30
2023-02-26T11:54:07.595Z,0.90
2023-02-26T11:55:07.595Z,1.10
2023-02-26T11:56:07.550Z,0.80
2023-02-26T11:57:07.541Z,1.70
2023-02-26T11:58:07.512Z,1.80
2023-02-26T11:59:07.503Z,2.80
2023-02-26T12:00:07.514Z,2.60
2023-02-26T12:01:07.478Z,2.90
2023-02-26T12:02:07.472Z,1.50
2023-02-26T12:03:07.449Z,0.80
2023-02-26T12:04:07.513Z,1.50
2023-02-26T12:05:07.428Z,1.10
2023-02-26T12:06:07.467Z,1.40
2023-02-26T12:07:07.425Z,1.30
2023-02-26T12:08:07.434Z,0.80
2023-02-26T12:09:07.388Z,1.40
2023-02-26T12:10:07.402Z,1.50
2023-02-26T12:11:07.332Z,1.30
2023-02-26T12:12:07.355Z,1.40
2023-02-26T12:13:07.311Z,1.20
2023-02-26T12:14:07.309Z,2.40
2023-02-26T12:15:07.277Z,1.30
2023-02-26T12:16:07.321Z,1.50
2023-02-26T12:17:07.279Z,1.20
2023-02-26T12:18:07.255Z,1.00
2023-02-26T12:19:07.244Z,1.60
2023-02-26T12:20:07.215Z,1.80
2023-02-26T12:21:07.202Z,1.30
2023-02-26T12:22:07.214Z,1.00
2023-02-26T12:23:07.180Z,1.80
2023-02-26T12:24:07.152Z,2.30
2023-02-26T12:25:07.152Z,1.40
2023-02-26T12:26:07.134Z,2.10
2023-02-26T12:27:07.138Z,2.90
2023-02-26T12:28:07.152Z,2.20
2023-02-26T12:29:07.100Z,1.80
2023-02-26T12:30:07.093Z,1.70
2023-02-26T12:31:07.270Z,1.90
2023-02-26T12:32:07.185Z,1.20
2023-02-26T12:33:07.108Z,1.40
2023-02-26T12:34:07.070Z,0.90
2023-02-26T12:35:07.062Z,1.10
2023-02-26T12:36:07.043Z,2.20
2023-02-26T12:37:06.989Z,1.60
2023-02-26T12:38:07.026Z,1.60
2023-02-26T12:39:07.000Z,3.30
2023-02-26T12:40:06.953Z,2.80
2023-02-26T12:41:06.978Z,3.10
2023-02-26T12:42:06.923Z,1.40
2023-02-26T12:43:06.926Z,1.40
2023-02-26T12:44:06.921Z,2.20
2023-02-26T12:45:06.909Z,1.00
2023-02-26T12:46:06.879Z,4.50
2023-02-26T12:47:06.896Z,1.70
2023-02-26T12:48:06.888Z,1.00
2023-02-26T12:49:06.838Z,2.40
2023-02-26T12:50:06.866Z,1.30
2023-02-26T12:51:06.858Z,1.00
2023-02-26T12:52:06.799Z,1.40
2023-02-26T12:53:09.911Z,4.00
2023-02-26T12:54:06.830Z,2.10
2023-02-26T12:55:07.812Z,1.00
2023-02-26T12:56:06.753Z,0.80
2023-02-26T12:57:06.741Z,2.70
2023-02-26T12:58:06.733Z,1.00
2023-02-26T12:59:07.251Z,1.10
2023-02-26T13:00:06.728Z,1.60
2023-02-26T13:01:06.722Z,1.90
2023-02-26T13:02:06.694Z,1.80
2023-02-26T13:03:06.659Z,1.70
2023-02-26T13:04:06.681Z,5.10
2023-02-26T13:05:06.643Z,2.30
2023-02-26T13:06:06.775Z,3.30
2023-02-26T13:07:07.999Z,2.50
2023-02-26T13:08:06.625Z,5.20
2023-02-26T13:09:06.568Z,2.20
2023-02-26T13:10:06.570Z,2.30
2023-02-26T13:11:06.548Z,3.30
2023-02-26T13:12:06.526Z,2.00
2023-02-26T13:13:07.595Z,1.30
2023-02-26T13:14:06.503Z,2.20
2023-02-26T13:15:06.532Z,2.00
2023-02-26T13:16:06.502Z,2.00
2023-02-26T13:17:06.476Z,2.70
2023-02-26T13:18:06.487Z,1.70
2023-02-26T13:19:06.483Z,1.50
2023-02-26T13:20:06.443Z,3.00
2023-02-26T13:21:06.497Z,2.20
2023-02-26T13:22:06.434Z,1.90
2023-02-26T13:23:06.409Z,1.60
2023-02-26T13:24:06.380Z,2.10
2023-02-26T13:25:06.405Z,3.70
2023-02-26T13:26:06.345Z,1.20
2023-02-26T13:27:06.346Z,1.40
2023-02-26T13:28:06.333Z,3.20
2023-02-26T13:29:06.322Z,2.30
2023-02-26T13:30:06.406Z,2.60
2023-02-26T13:31:06.377Z,3.00
2023-02-26T13:32:06.418Z,1.10
2023-02-26T13:33:06.338Z,2.00
2023-02-26T13:34:06.293Z,2.30
2023-02-26T13:35:06.271Z,2.50
2023-02-26T13:36:06.230Z,2.90
2023-02-26T13:37:06.200Z,1.40
2023-02-26T13:38:06.187Z,1.50
2023-02-26T13:39:06.165Z,2.80
2023-02-26T13:40:06.262Z,4.60
2023-02-26T13:41:07.218Z,1.50
2023-02-26T13:42:06.132Z,3.00
2023-02-26T13:43:06.123Z,1.80
2023-02-26T13:44:06.113Z,1.80
2023-02-26T13:45:06.092Z,1.70
2023-02-26T13:46:06.129Z,2.50
2023-02-26T13:47:06.103Z,1.50
2023-02-26T13:48:06.108Z,2.00
2023-02-26T13:49:06.050Z,1.40
2023-02-26T13:50:06.134Z,1.80
2023-02-26T13:51:06.790Z,2.60
2023-02-26T13:52:05.998Z,2.40
2023-02-26T13:53:06.028Z,1.50
2023-02-26T13:54:06.012Z,2.20
2023-02-26T13:55:06.062Z,2.00
2023-02-26T13:56:05.937Z,1.60
2023-02-26T13:57:05.932Z,3.00
2023-02-26T13:58:05.919Z,2.20
2023-02-26T13:59:05.937Z,1.10
2023-02-26T14:00:06.019Z,3.20
2023-02-26T14:01:05.997Z,2.80
2023-02-26T14:02:05.872Z,1.80
2023-02-26T14:03:06.059Z,3.10
2023-02-26T14:04:05.969Z,2.60
2023-02-26T14:05:05.846Z,1.20
2023-02-26T14:06:05.867Z,1.90
2023-02-26T14:07:05.810Z,4.20
2023-02-26T14:08:06.974Z,2.20
2023-02-26T14:09:05.808Z,2.60
2023-02-26T14:10:05.827Z,3.50
2023-02-26T14:11:05.756Z,2.60
2023-02-26T14:12:05.738Z,6.30
2023-02-26T14:13:05.732Z,2.20
2023-02-26T14:14:05.740Z,2.90
2023-02-26T14:15:05.714Z,1.20
2023-02-26T14:16:05.663Z,3.10
2023-02-26T14:17:05.731Z,1.40
2023-02-26T14:18:05.650Z,2.90
2023-02-26T14:19:05.672Z,3.20
2023-02-26T14:20:05.652Z,2.50
2023-02-26T14:21:05.616Z,3.30
2023-02-26T14:22:05.587Z,1.40
2023-02-26T14:23:05.598Z,1.90
2023-02-26T14:24:05.572Z,2.10
2023-02-26T14:25:05.599Z,1.40
2023-02-26T14:26:05.545Z,3.20
2023-02-26T14:27:05.531Z,2.40
2023-02-26T14:28:05.596Z,1.80
2023-02-26T14:29:05.655Z,2.00
2023-02-26T14:30:05.628Z,4.10
2023-02-26T14:31:05.615Z,2.90
2023-02-26T14:32:06.153Z,1.30
2023-02-26T14:33:05.531Z,2.30
2023-02-26T14:34:05.424Z,2.90
2023-02-26T14:35:05.466Z,4.70
2023-02-26T14:36:05.440Z,2.40
2023-02-26T14:37:05.394Z,1.10
2023-02-26T14:38:05.368Z,2.00
2023-02-26T14:39:05.373Z,1.80
2023-02-26T14:40:05.363Z,2.50
2023-02-26T14:41:05.344Z,3.40
2023-02-26T14:42:05.334Z,2.60
2023-02-26T14:43:05.323Z,1.80
2023-02-26T14:44:05.324Z,1.00
2023-02-26T14:45:05.330Z,2.20
2023-02-26T14:46:05.361Z,1.40
2023-02-26T14:47:05.266Z,1.50
2023-02-26T14:48:05.246Z,3.50
2023-02-26T14:49:05.258Z,2.20
2023-02-26T14:50:05.311Z,2.40
2023-02-26T14:51:05.208Z,5.00
2023-02-26T14:52:05.195Z,1.50
2023-02-26T14:53:05.180Z,2.60
2023-02-26T14:54:05.166Z,2.50
2023-02-26T14:55:05.153Z,1.70
2023-02-26T14:56:05.177Z,1.40
2023-02-26T14:57:27.155Z,1.70
2023-02-26T14:58:05.144Z,1.60
2023-02-26T14:59:05.116Z,2.30
2023-02-26T15:00:05.092Z,4.10
2023-02-26T15:01:16.029Z,2.30
2023-02-26T15:02:05.150Z,2.40
2023-02-26T15:03:05.151Z,1.60
2023-02-26T15:04:05.042Z,2.70
2023-02-26T15:05:05.021Z,1.30
2023-02-26T15:06:05.013Z,1.70
2023-02-26T15:07:05.028Z,2.40
2023-02-26T15:08:05.035Z,1.40
2023-02-26T15:09:05.069Z,1.40
2023-02-26T15:10:04.976Z,1.20
2023-02-26T15:11:04.941Z,3.00
2023-02-26T15:12:04.927Z,1.80
2023-02-26T15:13:04.940Z,1.70
2023-02-26T15:14:06.140Z,3.70
2023-02-26T15:15:04.965Z,2.00
2023-02-26T15:16:04.915Z,3.60
2023-02-26T15:17:04.910Z,1.20
2023-02-26T15:18:04.866Z,1.80
2023-02-26T15:19:04.885Z,2.60
2023-02-26T15:20:04.822Z,2.50
2023-02-26T15:21:04.882Z,2.30
2023-02-26T15:22:04.793Z,1.40
2023-02-26T15:23:04.809Z,4.60
2023-02-26T15:24:04.767Z,2.30
2023-02-26T15:25:04.774Z,2.00
2023-02-26T15:26:04.775Z,2.80
2023-02-26T15:27:04.869Z,2.10
2023-02-26T15:28:04.756Z,1.80
2023-02-26T15:29:04.729Z,2.80
2023-02-26T15:30:04.784Z,1.80
2023-02-26T15:31:04.851Z,2.40
2023-02-26T15:32:04.802Z,2.70
2023-02-26T15:33:04.666Z,2.70
2023-02-26T15:34:04.700Z,1.50
2023-02-26T15:35:04.731Z,1.10
2023-02-26T15:36:04.665Z,1.30
2023-02-26T15:37:04.606Z,1.10
2023-02-26T15:38:04.646Z,2.30
2023-02-26T15:39:04.568Z,1.10
2023-02-26T15:40:04.556Z,1.30
2023-02-26T15:41:04.564Z,2.00
2023-02-26T15:42:04.562Z,1.40
2023-02-26T15:43:04.600Z,1.80
2023-02-26T15:44:04.503Z,3.00
2023-02-26T15:45:04.512Z,1.40
2023-02-26T16:53:34.381Z,2.00
2023-02-26T16:54:33.347Z,2.00
2023-02-26T16:55:33.319Z,4.30
2023-02-26T16:56:33.304Z,7.70
2023-02-26T16:57:33.302Z,4.40
2023-02-26T16:58:33.295Z,3.60
2023-02-26T16:59:33.221Z,2.20
2023-02-26T17:00:33.259Z,1.90
2023-02-26T17:01:33.207Z,3.90
2023-02-26T17:02:33.301Z,2.30
2023-02-26T17:03:33.321Z,2.00
2023-02-26T17:04:33.222Z,2.50
2023-02-26T17:05:33.167Z,2.50
2023-02-26T17:06:33.230Z,2.30
2023-02-26T17:07:33.191Z,6.00
2023-02-26T17:08:33.123Z,5.60
2023-02-26T17:09:33.096Z,1.90
2023-02-26T17:10:33.145Z,3.20
2023-02-26T17:11:33.126Z,3.40
2023-02-26T17:12:33.135Z,2.70
2023-02-26T17:13:33.100Z,1.70
2023-02-26T17:14:33.034Z,1.80
2023-02-26T17:15:33.035Z,2.50
2023-02-26T17:16:33.121Z,4.20
2023-02-26T17:17:33.031Z,5.10
2023-02-26T17:18:32.985Z,3.60
2023-02-26T17:19:33.030Z,2.40
2023-02-26T17:20:33.031Z,2.00
2023-02-26T17:21:32.998Z,3.80
2023-02-26T17:22:32.966Z,1.80
2023-02-26T17:23:32.916Z,2.20
2023-02-26T17:24:32.895Z,3.20
2023-02-26T17:25:32.877Z,2.90
2023-02-26T17:26:32.881Z,3.20
2023-02-26T17:27:32.931Z,4.70
2023-02-26T17:28:32.849Z,3.60
2023-02-26T17:29:32.935Z,4.70
2023-02-26T17:30:32.823Z,5.60
2023-02-26T17:31:32.885Z,5.50
2023-02-26T17:32:33.001Z,5.50
2023-02-26T17:33:32.787Z,5.50
2023-02-26T17:34:32.770Z,6.60
2023-02-26T17:35:32.768Z,6.30
2023-02-26T17:36:32.739Z,7.30
2023-02-26T17:37:54.890Z,4.80
2023-02-26T17:38:32.710Z,5.60
2023-02-26T17:39:32.698Z,6.30
2023-02-26T17:40:32.965Z,5.60
2023-02-26T17:41:32.706Z,6.60
2023-02-26T17:42:32.648Z,3.60
2023-02-26T17:43:32.676Z,3.30
2023-02-26T17:44:32.640Z,5.20
2023-02-26T17:45:55.842Z,3.30
2023-02-26T17:46:32.636Z,2.60
2023-02-26T17:47:58.809Z,3.30
2023-02-26T17:48:32.567Z,4.10
2023-02-26T17:49:32.577Z,4.60
2023-02-26T19:07:32.753Z,9.40
2023-02-26T19:08:33.762Z,6.80
2023-02-26T19:09:33.749Z,5.70
2023-02-26T19:10:33.750Z,4.90
2023-02-26T19:11:33.784Z,4.20
2023-02-26T19:12:33.703Z,4.00
2023-02-26T19:13:34.582Z,6.80
2023-02-26T19:14:33.715Z,4.90
2023-02-26T19:15:33.732Z,6.70
2023-02-26T19:16:33.644Z,5.30
2023-02-26T19:17:33.630Z,6.20
2023-02-26T19:18:33.619Z,8.80
2023-02-26T19:19:33.769Z,6.30
2023-02-26T19:20:33.653Z,6.50
2023-02-26T19:21:33.629Z,7.40
2023-02-26T19:22:33.564Z,8.50
2023-02-26T19:23:33.565Z,6.40
2023-02-26T19:24:33.564Z,5.90
2023-02-26T19:25:33.544Z,7.40
2023-02-26T19:26:33.531Z,5.60
2023-02-26T19:27:33.505Z,6.60
2023-02-26T19:28:33.515Z,7.30
2023-02-26T19:29:33.515Z,5.70
2023-02-26T19:30:33.465Z,4.00
2023-02-26T19:31:33.862Z,6.00
2023-02-26T19:32:33.614Z,5.50
2023-02-26T19:33:33.429Z,6.80
2023-02-26T19:34:33.442Z,7.10
2023-02-26T19:35:33.430Z,9.20
2023-02-26T19:36:33.621Z,8.00
2023-02-26T19:37:33.464Z,8.40
2023-02-26T19:38:33.364Z,8.90
2023-02-26T19:39:33.441Z,8.30
2023-02-26T19:40:33.345Z,10.10
2023-02-26T19:41:33.308Z,5.80
2023-02-26T19:42:33.399Z,7.30
2023-02-26T19:43:33.314Z,7.50
2023-02-26T19:44:33.310Z,5.80
2023-02-26T19:45:33.322Z,6.80
2023-02-26T19:46:33.316Z,5.90
2023-02-26T19:47:33.258Z,5.90
2023-02-26T19:48:33.295Z,5.10
2023-02-26T19:49:33.227Z,6.10
2023-02-26T19:50:33.243Z,9.30
2023-02-26T19:51:33.212Z,5.80
2023-02-26T19:52:33.181Z,5.50
2023-02-26T19:53:33.299Z,7.20
2023-02-26T19:54:33.166Z,5.10
2023-02-26T19:55:33.193Z,7.00
2023-02-26T19:56:33.119Z,5.10
2023-02-26T19:57:33.150Z,5.90
2023-02-26T19:58:33.141Z,5.90
2023-02-26T19:59:33.083Z,5.80
2023-02-26T20:00:33.096Z,3.90
2023-02-26T20:01:33.085Z,6.60
2023-02-26T20:02:33.108Z,6.60
2023-02-26T20:03:33.016Z,4.70
2023-02-26T20:04:33.122Z,6.00
2023-02-26T20:05:33.162Z,6.60
2023-02-26T20:06:33.020Z,5.00
2023-02-26T20:07:32.984Z,5.20
2023-02-26T20:08:33.991Z,4.90
2023-02-26T20:09:32.963Z,6.40
2023-02-26T20:10:33.003Z,6.20
2023-02-26T20:11:32.916Z,8.00
2023-02-26T20:12:32.959Z,5.50
2023-02-26T20:13:32.897Z,7.50
2023-02-26T20:14:32.894Z,6.60
2023-02-26T20:15:32.915Z,7.30
2023-02-26T20:16:32.882Z,7.30
2023-02-26T20:17:32.844Z,7.70
2023-02-26T20:18:32.882Z,5.70
2023-02-26T20:19:32.818Z,10.50
2023-02-26T20:20:32.891Z,6.30
2023-02-26T20:21:32.826Z,5.30
2023-02-26T20:22:33.092Z,7.70
2023-02-26T20:23:32.755Z,4.50
2023-02-26T20:24:32.854Z,5.00
2023-02-26T20:25:32.746Z,6.50
2023-02-26T20:26:32.775Z,5.70
2023-02-26T20:27:32.708Z,6.20
2023-02-26T20:28:32.738Z,3.80
2023-02-26T20:29:32.716Z,4.70
2023-02-26T20:30:32.677Z,4.50
2023-02-26T20:31:32.884Z,4.20
2023-02-26T20:32:32.812Z,6.10
2023-02-26T20:33:32.746Z,6.30
2023-02-26T20:34:32.622Z,4.70
2023-02-26T20:35:32.694Z,8.50
2023-02-26T20:36:32.616Z,7.20
2023-02-26T20:37:32.576Z,5.90
2023-02-26T20:38:32.571Z,8.00
2023-02-26T20:39:32.560Z,4.90
2023-02-26T20:40:32.622Z,7.10
2023-02-26T20:41:32.548Z,4.60
2023-02-26T20:42:32.526Z,4.90
2023-02-26T20:43:32.669Z,5.50
2023-02-26T20:44:32.543Z,3.70
2023-02-26T20:45:32.499Z,5.50
2023-02-26T20:46:32.564Z,3.70
2023-02-26T20:47:32.486Z,3.80
2023-02-26T20:48:32.460Z,4.20
2023-02-26T20:49:32.424Z,3.10
2023-02-26T20:50:32.502Z,9.60
2023-02-26T20:51:32.404Z,4.70
2023-02-26T20:52:32.408Z,5.20
2023-02-26T20:53:32.388Z,3.80
2023-02-26T20:54:32.355Z,5.10
2023-02-26T20:55:32.377Z,3.40
2023-02-26T20:56:32.354Z,5.60
2023-02-26T20:57:32.390Z,4.00
2023-02-26T20:58:32.344Z,7.50
2023-02-26T20:59:32.278Z,3.80
2023-02-26T21:00:32.328Z,6.10
2023-02-26T21:01:32.320Z,3.00
2023-02-26T21:02:32.535Z,5.00
2023-02-26T21:03:32.240Z,5.30
2023-02-26T21:04:32.217Z,5.70
2023-02-26T21:05:32.207Z,5.60
2023-02-26T21:06:32.238Z,3.40
2023-02-26T21:07:32.190Z,4.30
2023-02-26T21:08:32.168Z,2.60
2023-02-26T21:09:32.162Z,4.40
2023-02-26T21:10:32.145Z,3.90
2023-02-26T21:11:33.152Z,4.30
2023-02-26T21:12:32.122Z,3.10
2023-02-26T21:13:32.140Z,4.40
2023-02-26T21:14:32.098Z,4.20
2023-02-26T21:15:32.078Z,3.20
2023-02-26T21:16:32.158Z,4.50
2023-02-26T21:17:32.810Z,3.90
2023-02-26T21:18:32.775Z,3.90
2023-02-26T21:19:32.023Z,6.10
2023-02-26T21:20:32.141Z,3.30
2023-02-26T21:21:32.416Z,3.90
2023-02-26T21:22:32.211Z,3.10
2023-02-26T21:23:31.980Z,1.90
2023-02-26T21:24:32.015Z,2.30
2023-02-26T21:25:31.958Z,2.60
2023-02-26T21:26:33.595Z,2.60
2023-02-26T21:27:32.001Z,6.00
2023-02-26T21:28:31.910Z,5.20
2023-02-26T21:29:31.891Z,4.60
2023-02-26T21:30:31.916Z,4.30
2023-02-26T21:31:31.937Z,4.80
2023-02-26T21:32:31.891Z,4.10
2023-02-26T21:33:31.844Z,4.30
2023-02-26T21:34:33.755Z,6.90
2023-02-26T21:35:31.900Z,5.10
2023-02-26T21:36:31.876Z,5.00
2023-02-26T21:37:31.856Z,4.00
2023-02-26T21:38:31.823Z,5.80
2023-02-26T21:39:31.756Z,5.20
2023-02-26T21:40:31.890Z,2.90
2023-02-26T21:41:31.777Z,3.40
2023-02-26T21:42:31.740Z,6.10
2023-02-26T21:43:31.756Z,5.10
2023-02-26T21:44:31.697Z,6.00
2023-02-26T21:45:31.730Z,2.50
2023-02-26T21:46:31.910Z,4.10
2023-02-26T21:47:31.761Z,5.70
2023-02-26T21:48:31.642Z,6.60
2023-02-26T21:49:31.627Z,5.00
2023-02-26T21:50:31.613Z,3.60
2023-02-26T21:51:31.665Z,4.90
2023-02-26T21:52:31.598Z,2.80
2023-02-26T21:53:31.612Z,4.40
2023-02-26T21:54:31.574Z,5.90
2023-02-26T21:55:31.569Z,3.30
2023-02-26T21:56:31.541Z,4.70
2023-02-26T21:57:31.566Z,3.50
2023-02-26T21:58:31.560Z,3.00
2023-02-26T21:59:31.510Z,5.40
2023-02-26T22:00:32.618Z,2.80
2023-02-26T22:01:31.543Z,4.10
2023-02-26T22:02:31.512Z,3.10
2023-02-26T22:03:31.443Z,4.40
2023-02-26T22:04:31.656Z,5.70
2023-02-26T22:05:31.415Z,3.40
2023-02-26T22:06:31.489Z,4.50
2023-02-26T22:07:31.430Z,4.50
2023-02-26T22:08:31.437Z,3.50
2023-02-26T22:09:31.380Z,3.50
2023-02-26T22:10:31.356Z,2.60
2023-02-26T22:11:31.386Z,6.20
2023-02-26T22:12:31.337Z,6.00
2023-02-26T22:13:31.320Z,3.10
2023-02-26T22:14:31.366Z,5.80
2023-02-26T22:15:31.391Z,3.20
2023-02-26T22:16:31.301Z,3.70
2023-02-26T22:17:31.336Z,6.20
2023-02-26T22:18:31.251Z,7.20
2023-02-26T22:19:31.242Z,4.50
2023-02-26T22:20:31.309Z,4.80
2023-02-26T22:21:31.253Z,4.70
2023-02-26T22:22:31.200Z,3.20
2023-02-26T22:23:31.195Z,3.10
2023-02-26T22:24:31.175Z,4.70
2023-02-26T22:25:31.222Z,3.30
2023-02-26T22:26:31.139Z,5.80
2023-02-26T22:27:31.198Z,5.00
2023-02-26T22:28:31.195Z,2.00
2023-02-26T22:29:31.110Z,3.10
2023-02-26T22:30:31.256Z,4.40
2023-02-26T22:31:31.153Z,3.20
2023-02-26T22:32:31.124Z,1.90
2023-02-26T22:33:31.153Z,2.70
2023-02-26T22:34:31.072Z,6.10
2023-02-26T22:35:31.101Z,1.80
2023-02-26T22:36:31.002Z,3.70
2023-02-26T22:37:31.029Z,3.00
2023-02-26T22:38:31.030Z,4.50
2023-02-26T22:39:30.990Z,5.70
2023-02-26T22:40:31.031Z,2.20
2023-02-26T22:41:30.946Z,4.90
2023-02-26T22:42:31.014Z,8.00
2023-02-26T22:43:31.003Z,5.70
2023-02-26T22:44:30.920Z,3.70
2023-02-26T22:45:30.894Z,2.50
2023-02-26T22:46:30.928Z,3.50
2023-02-26T22:47:30.967Z,4.20
2023-02-26T22:48:30.856Z,2.60
2023-02-26T22:49:30.850Z,6.40
2023-02-26T22:50:30.842Z,3.50
2023-02-26T22:51:30.817Z,4.70
2023-02-26T22:52:30.832Z,5.00
2023-02-26T22:53:30.796Z,2.50
2023-02-26T22:54:30.776Z,4.90
2023-02-26T22:55:30.791Z,4.20
2023-02-26T22:56:30.751Z,4.70
2023-02-26T22:57:30.751Z,3.50
2023-02-26T22:58:30.724Z,3.30
2023-02-26T22:59:30.717Z,3.90
2023-02-26T23:00:30.707Z,3.20
2023-02-26T23:01:30.799Z,3.00
2023-02-26T23:02:30.683Z,3.90
2023-02-26T23:03:30.658Z,3.60
2023-02-26T23:04:30.673Z,6.10
2023-02-26T23:05:30.660Z,2.60
2023-02-26T23:06:30.619Z,3.70
2023-02-26T23:07:30.609Z,2.10
2023-02-26T23:08:30.596Z,3.80
2023-02-26T23:09:30.619Z,2.90
2023-02-26T23:10:30.560Z,5.50
2023-02-26T23:11:30.562Z,6.70
2023-02-26T23:12:30.558Z,3.50
2023-02-26T23:13:30.569Z,2.70
2023-02-26T23:14:30.515Z,4.10
2023-02-26T23:15:30.546Z,2.90
2023-02-26T23:16:30.479Z,3.80
2023-02-26T23:17:30.523Z,2.20
2023-02-26T23:18:30.555Z,3.80
2023-02-26T23:19:30.541Z,5.80
2023-02-26T23:20:30.453Z,4.90
2023-02-26T23:21:30.541Z,4.30
2023-02-26T23:22:30.461Z,6.00
2023-02-26T23:23:30.415Z,4.10
2023-02-26T23:24:30.387Z,7.00
2023-02-26T23:25:30.491Z,4.40
2023-02-26T23:26:30.362Z,2.30
2023-02-26T23:27:30.342Z,4.00
2023-02-26T23:28:30.374Z,5.60
2023-02-26T23:29:30.333Z,3.50
2023-02-26T23:30:30.298Z,4.00
2023-02-26T23:31:30.793Z,3.20
2023-02-26T23:32:30.337Z,4.30
2023-02-26T23:33:30.268Z,4.70
2023-02-26T23:34:30.248Z,4.20
2023-02-26T23:35:30.245Z,4.30
2023-02-26T23:36:30.219Z,4.10
2023-02-26T23:37:30.214Z,5.30
2023-02-26T23:38:30.212Z,2.20
2023-02-26T23:39:30.185Z,3.40
2023-02-26T23:40:30.173Z,2.00
2023-02-26T23:41:30.147Z,3.40
2023-02-26T23:42:30.152Z,1.70
2023-02-26T23:43:30.142Z,3.30
2023-02-26T23:44:30.144Z,5.40
2023-02-26T23:45:30.101Z,5.20
2023-02-26T23:46:30.141Z,4.20
2023-02-26T23:47:30.096Z,3.70
2023-02-26T23:48:30.081Z,6.50
2023-02-26T23:49:30.053Z,3.50
2023-02-26T23:50:30.042Z,7.10
2023-02-26T23:51:30.018Z,4.10
2023-02-26T23:52:30.009Z,6.90
2023-02-26T23:53:30.029Z,6.20
2023-02-26T23:54:29.973Z,7.20
2023-02-26T23:55:29.974Z,3.10
2023-02-26T23:56:29.941Z,4.10
2023-02-26T23:57:29.941Z,5.90
2023-02-26T23:58:29.936Z,6.20
2023-02-26T23:59:29.911Z,4.20
